Time;durP1;ratioP1;P1;durP2;ratioP2;P2;SDS_P1;SDS_P2;PMS_P1;PMS_P2;Temp;Humidity;BMP_temperature;BMP_pressure;BME280_temperature;BME280_humidity;BME280_pressure;Samples;Min_cycle;Max_cycle;Signal;HPM_P1;HPM_P2
2023/01/31 00:01:38;;;;;;;14.60;9.50;;;;;;;5.51;76.30;101006.00;4955113;28;20084;-86
2023/01/31 00:04:06;;;;;;;14.30;9.00;;;;;;;5.40;76.45;100989.63;4955364;28;20053;-89
2023/01/31 00:06:34;;;;;;;15.93;9.55;;;;;;;5.69;76.10;101045.38;4970522;28;20046;-87
2023/01/31 00:09:00;;;;;;;15.30;9.05;;;;;;;5.46;76.36;101007.31;4954948;28;20026;-88
2023/01/31 00:11:27;;;;;;;14.75;9.02;;;;;;;5.49;76.59;101016.25;4955159;28;20086;-88
2023/01/31 00:13:56;;;;;;;16.02;9.18;;;;;;;5.55;76.49;101040.84;4954893;28;20105;-88
2023/01/31 00:16:22;;;;;;;16.52;9.05;;;;;;;5.43;76.59;101009.69;4955027;28;20559;-87
2023/01/31 00:18:48;;;;;;;16.83;9.75;;;;;;;5.58;76.47;101034.19;4954927;28;20043;-87
2023/01/31 00:21:16;;;;;;;17.02;9.90;;;;;;;5.28;76.55;100975.72;4964630;28;20065;-88
2023/01/31 00:23:43;;;;;;;15.25;9.43;;;;;;;5.19;76.42;100968.16;4957548;28;20057;-88
2023/01/31 00:26:09;;;;;;;;;;;;;;;5.65;76.30;101056.28;4935968;28;20043;-86
2023/01/31 00:28:35;;;;;;;15.67;9.17;;;;;;;5.47;76.31;101041.13;4920880;29;19910;-86
2023/01/31 00:31:00;;;;;;;16.35;9.70;;;;;;;5.56;76.49;101053.00;4919597;28;20070;-85
2023/01/31 00:33:26;;;;;;;16.42;9.57;;;;;;;5.47;76.36;101027.28;4949996;28;20082;-86
2023/01/31 00:35:51;;;;;;;15.15;9.18;;;;;;;5.44;76.54;101024.44;4934420;28;20030;-88
2023/01/31 00:38:17;;;;;;;15.50;9.60;;;;;;;5.44;76.04;101024.44;4967361;28;20122;-85
2023/01/31 00:40:51;;;;;;;14.70;9.40;;;;;;;5.39;76.44;101005.03;4934702;28;20381;-85
2023/01/31 00:43:16;;;;;;;15.32;9.23;;;;;;;5.58;76.63;101041.06;4951247;28;20126;-86
2023/01/31 00:45:42;;;;;;;15.25;9.27;;;;;;;5.52;76.31;101020.75;4918640;29;20130;-87
2023/01/31 00:48:08;;;;;;;16.92;9.50;;;;;;;5.57;76.20;101034.97;4935616;29;20094;-87
2023/01/31 00:50:35;;;;;;;16.80;9.70;;;;;;;5.51;75.94;101026.72;4934465;29;20038;-88
2023/01/31 00:53:01;;;;;;;15.25;9.40;;;;;;;5.52;76.45;101033.69;4934809;29;20071;-88
2023/01/31 00:55:27;;;;;;;16.00;9.70;;;;;;;5.60;76.28;101047.25;4967105;28;20502;-88
2023/01/31 00:57:54;;;;;;;16.35;9.00;;;;;;;5.14;76.17;100965.97;4935075;29;20035;-87
2023/01/31 01:00:19;;;;;;;16.55;9.73;;;;;;;5.45;76.45;101005.53;4950437;29;20059;-87
2023/01/31 01:02:45;;;;;;;18.10;10.30;;;;;;;5.61;76.27;101036.09;4935295;29;20070;-88
2023/01/31 01:05:10;;;;;;;16.13;9.25;;;;;;;5.61;75.76;101047.41;4952715;28;20492;-88
2023/01/31 01:07:36;;;;;;;16.52;9.68;;;;;;;5.25;76.09;100978.09;4934472;29;20195;-88
2023/01/31 01:10:03;;;;;;;16.00;9.60;;;;;;;5.57;76.29;101027.22;4935331;29;20035;-88
2023/01/31 01:12:28;;;;;;;15.82;9.60;;;;;;;5.36;76.02;100985.00;4935319;29;20038;-87
2023/01/31 01:14:54;;;;;;;16.58;9.50;;;;;;;5.40;75.93;100996.50;4951332;28;20027;-86
2023/01/31 01:17:20;;;;;;;17.75;10.00;;;;;;;5.49;75.86;101018.84;4951266;29;20460;-86
2023/01/31 01:19:45;;;;;;;15.55;9.23;;;;;;;5.25;76.24;100968.63;4935153;29;20020;-87
2023/01/31 01:22:14;;;;;;;16.23;9.48;;;;;;;5.42;76.26;100990.66;4959884;28;20062;-86
2023/01/31 01:24:42;;;;;;;15.98;9.32;;;;;;;5.50;76.05;100999.00;4935483;29;20027;-86
2023/01/31 01:27:09;;;;;;;17.02;9.55;;;;;;;5.44;76.05;100982.97;4938178;29;20496;-86
2023/01/31 01:29:35;;;;;;;16.48;9.40;;;;;;;5.47;75.98;100989.31;4943922;29;20035;-85
2023/01/31 01:32:00;;;;;;;16.73;10.02;;;;;;;5.51;76.32;100990.47;4955868;28;20042;-85
2023/01/31 01:34:29;;;;;;;15.73;9.60;;;;;;;5.13;76.16;100926.25;4952472;28;20035;-87
2023/01/31 01:36:54;;;;;;;16.67;9.38;;;;;;;5.36;76.25;100969.47;4930459;29;20035;-87
2023/01/31 01:39:20;;;;;;;15.57;9.52;;;;;;;5.49;76.21;100989.44;4952592;29;20031;-87
2023/01/31 01:41:46;;;;;;;15.75;9.60;;;;;;;5.13;76.21;100920.16;4953017;29;20053;-87
2023/01/31 01:44:42;;;;;;;16.08;9.38;;;;;;;5.55;76.35;100995.09;4936583;29;20583;-86
2023/01/31 01:47:19;;;;;;;14.82;9.15;;;;;;;5.41;76.09;100975.00;4922225;28;20047;-86
2023/01/31 01:49:58;;;;;;;16.75;9.68;;;;;;;5.26;76.02;100944.53;4960856;28;20034;-86
2023/01/31 01:52:25;;;;;;;17.10;9.93;;;;;;;5.46;76.16;100978.81;4953874;28;20094;-87
2023/01/31 01:55:01;;;;;;;16.02;9.18;;;;;;;5.49;75.95;100979.09;4938674;29;20019;-88
2023/01/31 01:57:32;;;;;;;15.52;9.43;;;;;;;5.32;75.95;100951.88;4954720;28;20034;-87
2023/01/31 02:00:07;;;;;;;16.55;9.52;;;;;;;5.50;75.83;100986.06;4970311;28;20489;-88
2023/01/31 02:02:36;;;;;;;16.67;9.48;;;;;;;5.49;76.35;100979.09;4937792;29;20500;-88
2023/01/31 02:05:04;;;;;;;16.63;9.45;;;;;;;5.51;76.11;100983.59;4970015;28;20039;-88
2023/01/31 02:07:30;;;;;;;17.52;9.90;;;;;;;5.18;75.74;100929.19;4938304;29;20031;-88
2023/01/31 02:10:03;;;;;;;18.23;10.20;;;;;;;5.50;76.13;100981.81;4955244;28;20401;-87
2023/01/31 02:12:31;;;;;;;15.25;9.43;;;;;;;5.48;76.28;100969.50;4936907;29;20571;-87
2023/01/31 02:14:57;;;;;;;15.43;9.15;;;;;;;5.40;75.79;100950.78;4938439;29;20031;-88
2023/01/31 02:17:22;;;;;;;16.90;9.30;;;;;;;5.49;76.10;100969.63;4966447;28;20038;-87
2023/01/31 02:19:57;;;;;;;19.07;10.77;;;;;;;5.53;75.71;100973.38;4938008;29;20321;-86
2023/01/31 02:22:31;;;;;;;14.98;9.57;;;;;;;5.38;76.03;100948.88;4963775;28;20310;-88
2023/01/31 02:25:13;;;;;;;17.25;9.48;;;;;;;5.35;75.93;100949.50;4956904;28;20045;-87
2023/01/31 02:28:16;;;;;;;15.35;9.23;;;;;;;5.47;75.86;100968.59;4973030;28;20035;-88
2023/01/31 02:30:54;;;;;;;15.40;9.25;;;;;;;5.49;75.76;100969.63;4974018;28;20097;-87
2023/01/31 02:33:19;;;;;;;15.52;8.88;;;;;;;5.51;75.69;100959.38;4956194;28;20035;-87
2023/01/31 02:35:58;;;;;;;18.40;10.47;;;;;;;5.41;75.84;100955.16;4956081;28;20085;-87
2023/01/31 02:38:32;;;;;;;17.45;9.75;;;;;;;5.45;75.86;100985.69;4955742;28;20034;-87
2023/01/31 02:41:18;;;;;;;16.23;9.50;;;;;;;5.46;75.80;100990.13;4956361;28;20030;-87
2023/01/31 02:46:53;;;;;;;16.48;9.50;;;;;;;5.46;75.81;100981.41;4958759;28;20057;-87
2023/01/31 02:49:33;;;;;;;15.85;9.07;;;;;;;5.38;75.81;100972.19;4972616;28;20483;-87
2023/01/31 02:52:20;;;;;;;17.55;9.40;;;;;;;5.26;75.78;100949.72;4955892;28;20046;-87
2023/01/31 02:57:55;;;;;;;17.33;9.77;;;;;;;5.30;76.30;100966.41;4959555;28;20153;-87
2023/01/31 03:00:21;;;;;;;17.60;9.95;;;;;;;5.26;76.06;100957.47;4956656;28;20026;-89
2023/01/31 03:02:47;;;;;;;17.00;9.77;;;;;;;5.44;76.21;100985.56;4953559;29;20031;-88
2023/01/31 03:05:17;;;;;;;15.38;9.15;;;;;;;5.44;76.03;100989.09;4969469;28;20034;-88
2023/01/31 03:07:49;;;;;;;16.17;9.48;;;;;;;5.34;75.89;100975.31;4955249;28;20043;-87
2023/01/31 03:10:25;;;;;;;15.43;9.30;;;;;;;4.95;75.74;100901.50;4957253;28;20027;-86
2023/01/31 03:13:09;;;;;;;17.48;10.05;;;;;;;5.40;75.86;100987.06;4954594;28;20061;-88
2023/01/31 03:19:00;;;;;;;15.73;9.38;;;;;;;5.39;75.83;100976.56;4963664;28;20045;-87
2023/01/31 03:21:32;;;;;;;15.15;9.30;;;;;;;5.33;76.13;100976.09;4968073;28;20489;-87
2023/01/31 03:23:58;;;;;;;15.30;9.10;;;;;;;5.34;76.01;100986.56;4955967;28;20036;-87
2023/01/31 03:26:25;;;;;;;16.50;9.20;;;;;;;5.26;76.16;100966.94;4973152;28;20102;-86
2023/01/31 03:28:55;;;;;;;15.93;8.88;;;;;;;5.27;76.18;100967.06;4955276;28;20472;-86
2023/01/31 03:31:35;;;;;;;16.48;9.45;;;;;;;5.40;75.90;100986.16;4971242;28;20031;-87
2023/01/31 03:34:03;;;;;;;16.70;9.65;;;;;;;5.33;76.13;100983.84;4972824;28;20069;-85
2023/01/31 03:36:50;;;;;;;16.67;9.52;;;;;;;5.02;76.22;100922.81;4955440;28;20049;-85
2023/01/31 03:39:51;;;;;;;15.80;9.18;;;;;;;5.38;75.76;100982.53;4972210;28;20027;-86
2023/01/31 03:42:24;;;;;;;15.88;9.45;;;;;;;5.19;76.20;100952.63;4952309;28;20062;-86
2023/01/31 03:45:14;;;;;;;16.40;9.30;;;;;;;5.36;76.29;100976.34;4955411;28;20512;-87
2023/01/31 03:47:43;;;;;;;16.48;9.57;;;;;;;5.36;75.86;100974.63;4954371;28;20046;-87
2023/01/31 03:50:20;;;;;;;16.27;9.60;;;;;;;5.35;76.40;100979.69;4955097;28;20053;-87
2023/01/31 03:52:52;;;;;;;14.93;8.65;;;;;;;5.26;76.03;100964.34;4955816;28;20034;-87
2023/01/31 03:55:21;;;;;;;15.07;9.45;;;;;;;5.29;75.87;100973.25;4954549;28;20033;-88
2023/01/31 03:57:51;;;;;;;17.42;9.25;;;;;;;5.35;75.84;100982.28;4955185;28;20069;-87
2023/01/31 04:00:18;;;;;;;16.80;9.48;;;;;;;4.93;75.92;100918.59;4953970;28;20133;-87
2023/01/31 04:02:45;;;;;;;16.60;9.43;;;;;;;5.17;76.15;100950.69;4954207;28;20031;-87
2023/01/31 04:05:20;;;;;;;17.33;9.73;;;;;;;4.87;75.69;100907.00;4934925;28;20418;-89
2023/01/31 04:07:46;;;;;;;16.85;9.80;;;;;;;5.07;75.59;100941.28;4948943;28;20031;-87
2023/01/31 04:10:15;;;;;;;17.17;9.57;;;;;;;5.35;75.92;100984.88;4948686;28;20117;-87
2023/01/31 04:12:41;;;;;;;17.85;9.82;;;;;;;5.35;75.63;100982.28;4954333;28;20130;-87
2023/01/31 04:15:09;;;;;;;14.68;9.23;;;;;;;5.25;75.67;100975.50;4951467;28;20030;-87
2023/01/31 04:17:36;;;;;;;16.02;9.35;;;;;;;5.10;75.71;100955.38;4952241;28;20105;-87
2023/01/31 04:20:02;;;;;;;16.92;9.57;;;;;;;5.17;75.90;100969.72;4954873;28;20043;-87
2023/01/31 04:22:28;;;;;;;17.02;8.77;;;;;;;5.28;75.60;100980.91;4952585;28;20480;-86
2023/01/31 04:24:55;;;;;;;16.98;10.18;;;;;;;5.12;75.98;100959.75;4954161;28;20039;-87
2023/01/31 04:27:20;;;;;;;15.85;9.30;;;;;;;5.15;75.49;100960.91;4954864;28;20187;-87
2023/01/31 04:29:46;;;;;;;14.50;8.88;;;;;;;5.13;75.66;100974.53;4955077;28;20551;-87
2023/01/31 04:32:15;;;;;;;17.98;9.55;;;;;;;5.05;75.74;100961.88;4955280;28;20038;-88
2023/01/31 04:34:40;;;;;;;16.30;9.52;;;;;;;5.09;76.00;100978.56;4954108;28;20524;-88
2023/01/31 04:37:06;;;;;;;15.50;9.50;;;;;;;5.17;75.98;100984.34;4959107;28;20054;-87
2023/01/31 04:39:32;;;;;;;15.45;9.30;;;;;;;5.21;76.19;100995.06;4978533;28;20071;-87
2023/01/31 04:41:58;;;;;;;15.85;9.20;;;;;;;5.04;75.92;100957.50;4973526;28;20026;-86
2023/01/31 04:44:24;;;;;;;16.05;9.68;;;;;;;5.25;76.09;100998.81;4956658;28;20507;-87
2023/01/31 04:46:55;;;;;;;17.47;9.67;;;;;;;5.13;76.04;100980.59;4971415;28;20070;-89
2023/01/31 04:49:22;;;;;;;16.35;9.30;;;;;;;5.14;75.74;100986.69;4955175;28;20708;-89
2023/01/31 04:51:48;;;;;;;18.05;10.00;;;;;;;5.10;75.78;100982.94;4950866;28;20042;-88
2023/01/31 04:54:14;;;;;;;16.30;9.50;;;;;;;5.14;76.01;101003.09;4970832;28;20440;-87
2023/01/31 04:56:43;;;;;;;17.42;9.55;;;;;;;4.98;75.57;100976.81;4954316;28;20038;-86
2023/01/31 04:59:08;;;;;;;19.42;9.60;;;;;;;5.03;76.04;100980.66;4955213;28;20046;-86
2023/01/31 05:01:34;;;;;;;16.27;8.98;;;;;;;5.17;75.81;100995.59;4958747;28;20039;-87
2023/01/31 05:03:59;;;;;;;17.95;9.80;;;;;;;4.89;75.62;100953.69;4957474;28;20043;-87
2023/01/31 05:06:26;;;;;;;16.20;9.20;;;;;;;5.18;75.63;101012.03;4958314;28;20026;-87
2023/01/31 05:08:53;;;;;;;19.00;9.73;;;;;;;4.86;76.25;100956.91;4957784;28;20039;-86
2023/01/31 05:11:19;;;;;;;15.45;9.20;;;;;;;5.23;75.70;101021.06;4974753;28;20516;-87
2023/01/31 05:13:44;;;;;;;17.23;9.52;;;;;;;5.01;75.85;100984.81;4973083;28;20027;-86
2023/01/31 05:16:11;;;;;;;16.75;9.77;;;;;;;5.24;75.85;101025.47;4973914;28;20031;-86
2023/01/31 05:18:37;;;;;;;17.45;9.43;;;;;;;4.77;75.78;100947.53;4957933;28;20165;-85
2023/01/31 05:21:03;;;;;;;16.38;9.60;;;;;;;5.23;75.97;101028.84;4956555;28;20055;-86
2023/01/31 05:23:30;;;;;;;15.95;9.00;;;;;;;5.18;75.93;101037.91;4957841;28;20045;-85
2023/01/31 05:25:55;;;;;;;;;;;;;;;5.17;75.95;101034.44;4958007;28;20031;-86
2023/01/31 05:28:24;;;;;;;17.20;9.52;;;;;;;5.09;75.88;101025.16;4957325;28;19953;-86
2023/01/31 05:30:51;;;;;;;15.77;8.80;;;;;;;4.95;76.03;100997.25;4957817;28;20033;-87
2023/01/31 05:33:19;;;;;;;16.95;9.10;;;;;;;4.90;75.68;100991.72;4958109;28;20046;-87
2023/01/31 05:35:46;;;;;;;15.77;9.18;;;;;;;5.18;76.39;101043.09;4957119;28;20023;-84
2023/01/31 05:38:12;;;;;;;17.52;9.35;;;;;;;5.02;75.96;101016.00;4974069;28;20050;-87
2023/01/31 05:40:37;;;;;;;15.05;9.25;;;;;;;4.85;76.04;100982.69;4957573;28;20462;-86
2023/01/31 05:43:04;;;;;;;16.05;9.13;;;;;;;4.83;75.96;100979.06;4969272;28;20509;-86
2023/01/31 05:45:30;;;;;;;16.85;10.02;;;;;;;5.15;75.65;101032.50;4951620;28;20101;-85
2023/01/31 05:47:56;;;;;;;16.52;9.50;;;;;;;4.95;76.12;101018.84;4957485;28;20794;-86
2023/01/31 05:50:22;;;;;;;16.35;9.48;;;;;;;5.13;76.10;101042.72;4957885;28;20053;-87
2023/01/31 05:52:59;;;;;;;16.60;9.57;;;;;;;5.00;75.69;101017.56;4957811;28;20030;-87
2023/01/31 05:55:26;;;;;;;;;;;;;;;5.18;76.17;101056.03;4957621;28;20027;-86
2023/01/31 05:57:52;;;;;;;15.73;8.75;;;;;;;5.17;76.27;101049.06;4941548;28;19917;-85
2023/01/31 06:00:18;;;;;;;;;;;;;;;5.17;76.25;101051.66;4942125;28;20039;-83
2023/01/31 06:02:43;;;;;;;14.90;8.80;;;;;;;5.07;76.31;101042.22;4957259;28;19964;-84
2023/01/31 06:05:10;;;;;;;13.93;8.63;;;;;;;4.97;76.52;101027.63;4955937;28;20085;-85
2023/01/31 06:07:36;;;;;;;15.00;9.30;;;;;;;5.01;76.13;101041.75;4957355;28;20031;-85
2023/01/31 06:10:02;;;;;;;14.90;9.05;;;;;;;5.10;76.13;101061.50;4954943;28;20519;-86
2023/01/31 06:12:27;;;;;;;15.90;9.65;;;;;;;5.12;76.14;101066.78;4973611;28;20043;-86
2023/01/31 06:14:53;;;;;;;16.73;9.52;;;;;;;5.07;76.29;101052.59;4969123;28;20034;-86
2023/01/31 06:17:19;;;;;;;17.38;9.55;;;;;;;5.12;76.03;101065.88;4956736;28;20042;-85
2023/01/31 06:19:44;;;;;;;16.75;9.88;;;;;;;4.93;76.25;101030.75;4956473;28;20071;-85
2023/01/31 06:22:10;;;;;;;17.17;10.00;;;;;;;4.94;75.98;101030.00;4955909;28;20070;-84
2023/01/31 06:24:35;;;;;;;16.63;9.35;;;;;;;4.99;76.19;101053.66;4972759;28;20110;-85
2023/01/31 06:27:01;;;;;;;17.30;9.63;;;;;;;5.04;76.16;101063.59;4973895;28;20039;-85
2023/01/31 06:29:27;;;;;;;15.95;9.57;;;;;;;4.99;76.31;101056.25;4955166;28;20038;-85
2023/01/31 06:31:53;;;;;;;17.05;9.88;;;;;;;5.00;76.15;101064.13;4954991;28;20659;-87
2023/01/31 06:34:19;;;;;;;14.70;9.40;;;;;;;4.90;76.66;101041.78;4955131;28;20061;-84
2023/01/31 06:36:44;;;;;;;16.85;9.15;;;;;;;5.07;76.25;101088.81;4953830;28;20348;-84
2023/01/31 06:39:12;;;;;;;16.42;9.45;;;;;;;5.12;76.07;101084.00;4954582;28;20519;-87
2023/01/31 06:41:38;;;;;;;16.52;9.32;;;;;;;5.08;76.39;101083.78;4971121;28;20015;-87
2023/01/31 06:44:03;;;;;;;16.17;9.60;;;;;;;4.91;76.25;101063.41;4955942;28;20031;-86
2023/01/31 06:46:32;;;;;;;15.05;9.45;;;;;;;4.84;76.12;101053.31;4954754;28;20109;-86
2023/01/31 06:48:58;;;;;;;16.55;9.55;;;;;;;4.93;76.32;101059.22;4954672;28;20027;-86
2023/01/31 06:51:25;;;;;;;15.55;9.48;;;;;;;4.89;76.20;101052.91;4955974;28;20035;-87
2023/01/31 06:53:51;;;;;;;16.73;10.10;;;;;;;4.89;76.22;101060.69;4956397;28;20034;-87
2023/01/31 06:56:17;;;;;;;17.05;9.77;;;;;;;5.03;76.02;101076.41;4973641;28;20030;-86
2023/01/31 06:58:43;;;;;;;16.92;10.15;;;;;;;4.82;76.08;101049.69;4955340;28;20066;-85
2023/01/31 07:01:12;;;;;;;16.60;10.07;;;;;;;4.87;76.25;101053.59;4954593;28;20699;-86
2023/01/31 07:03:39;;;;;;;16.70;9.63;;;;;;;5.08;76.41;101094.13;4971510;28;20026;-87
2023/01/31 07:06:05;;;;;;;18.50;9.98;;;;;;;5.07;76.35;101081.06;4954960;28;20027;-86
2023/01/31 07:08:32;;;;;;;20.05;10.45;;;;;;;5.08;76.33;101094.13;4955355;28;20023;-85
2023/01/31 07:10:58;;;;;;;17.92;10.27;;;;;;;5.05;75.72;101080.03;4956139;28;20029;-87
2023/01/31 07:13:25;;;;;;;18.35;10.23;;;;;;;4.85;76.18;101050.88;4956022;28;20034;-86
2023/01/31 07:15:52;;;;;;;18.52;10.25;;;;;;;4.82;76.04;101050.59;4956820;28;20015;-86
2023/01/31 07:18:17;;;;;;;18.50;10.27;;;;;;;4.86;75.96;101067.28;4959853;28;20037;-87
2023/01/31 07:20:43;;;;;;;18.98;10.75;;;;;;;5.01;75.94;101088.31;4961073;28;20568;-87
2023/01/31 07:23:08;;;;;;;18.55;10.55;;;;;;;4.89;76.47;101081.38;4955265;28;20053;-87
2023/01/31 07:25:36;;;;;;;18.20;10.27;;;;;;;4.92;76.47;101087.59;4955146;28;20038;-87
2023/01/31 07:28:02;;;;;;;17.13;10.50;;;;;;;5.07;76.27;101119.88;4956213;28;20034;-87
2023/01/31 07:30:32;;;;;;;18.23;10.35;;;;;;;4.83;76.38;101073.13;4951762;29;20049;-88
2023/01/31 07:32:59;;;;;;;17.05;9.93;;;;;;;5.04;76.50;101111.88;4956142;28;20030;-87
2023/01/31 07:35:27;;;;;;;16.75;9.80;;;;;;;4.60;76.37;101035.03;4971953;28;20503;-88
2023/01/31 07:37:53;;;;;;;18.25;10.27;;;;;;;4.74;76.74;101059.44;4939986;28;20105;-88
2023/01/31 07:40:19;;;;;;;18.80;10.55;;;;;;;5.05;76.40;101114.56;4955359;28;20035;-88
2023/01/31 07:42:45;;;;;;;19.08;10.90;;;;;;;4.64;76.20;101037.06;4942730;28;20165;-88
2023/01/31 07:45:13;;;;;;;18.20;10.60;;;;;;;5.05;76.36;101114.56;4956444;28;20037;-88
2023/01/31 07:47:41;;;;;;;19.23;10.77;;;;;;;5.06;76.33;101112.91;4970209;28;20042;-89
2023/01/31 07:50:10;;;;;;;17.85;9.70;;;;;;;4.92;76.52;101085.00;4956444;28;20073;-88
2023/01/31 07:52:37;;;;;;;19.38;10.55;;;;;;;4.81;76.11;101060.84;4943097;28;20022;-88
2023/01/31 07:55:03;;;;;;;18.15;10.82;;;;;;;4.86;76.12;101072.47;4955119;28;20109;-88
2023/01/31 07:57:30;;;;;;;18.75;10.32;;;;;;;4.96;76.11;101087.06;4956084;28;20111;-88
2023/01/31 07:59:56;;;;;;;20.55;11.20;;;;;;;4.82;76.39;101070.41;4955969;28;20034;-88
2023/01/31 08:05:10;;;;;;;19.90;10.65;;;;;;;5.03;76.06;101103.19;4955331;28;20041;-88
2023/01/31 08:07:38;;;;;;;19.15;10.45;;;;;;;5.00;76.30;101095.19;4955818;28;20496;-88
2023/01/31 08:10:08;;;;;;;17.73;10.60;;;;;;;5.02;76.42;101083.28;4955462;28;20518;-87
2023/01/31 08:12:34;;;;;;;17.88;10.43;;;;;;;4.60;76.48;101016.91;4970743;28;20023;-87
2023/01/31 08:14:59;;;;;;;18.55;10.70;;;;;;;4.88;76.35;101057.97;4955349;28;20080;-87
2023/01/31 08:17:25;;;;;;;21.73;11.65;;;;;;;4.60;76.13;101022.09;4954495;28;20027;-86
2023/01/31 08:19:51;;;;;;;19.08;10.43;;;;;;;4.60;76.32;101023.78;4955517;28;20421;-86
2023/01/31 08:22:19;;;;;;;20.25;11.40;;;;;;;4.77;75.85;101051.91;4954803;28;20057;-86
2023/01/31 08:24:45;;;;;;;21.25;11.45;;;;;;;4.98;76.21;101098.44;4954658;28;20031;-86
2023/01/31 08:27:10;;;;;;;20.57;11.10;;;;;;;4.89;76.45;101093.44;4953967;28;20062;-86
2023/01/31 08:29:36;;;;;;;21.38;11.82;;;;;;;4.69;76.52;101043.53;4955053;28;20285;-87
2023/01/31 08:32:02;;;;;;;20.75;11.65;;;;;;;5.00;76.30;101099.47;4952871;28;20117;-84
2023/01/31 08:34:27;;;;;;;21.42;11.25;;;;;;;4.69;76.34;101050.38;4954289;28;20030;-85
2023/01/31 08:36:53;;;;;;;22.75;12.27;;;;;;;4.97;76.26;101097.50;4972677;28;20022;-86
2023/01/31 08:39:18;;;;;;;21.00;11.57;;;;;;;4.66;76.13;101048.47;4970936;28;20023;-86
2023/01/31 08:41:45;;;;;;;21.90;12.00;;;;;;;4.95;76.26;101101.66;4972021;28;20078;-85
2023/01/31 08:44:11;;;;;;;19.85;10.93;;;;;;;4.95;76.29;101112.00;4954742;28;20408;-85
2023/01/31 08:46:37;;;;;;;19.40;11.45;;;;;;;4.57;76.26;101033.84;4954423;28;20109;-85
2023/01/31 08:49:04;;;;;;;21.17;11.95;;;;;;;4.94;76.24;101109.31;4952319;28;20034;-86
2023/01/31 08:51:30;;;;;;;19.40;11.25;;;;;;;4.59;76.34;101046.16;4970592;28;20042;-86
2023/01/31 08:53:56;;;;;;;21.05;11.45;;;;;;;4.83;76.15;101083.47;4970222;28;20023;-85
2023/01/31 08:56:24;;;;;;;19.70;11.10;;;;;;;4.76;76.37;101069.88;4972228;28;20093;-86
2023/01/31 08:58:51;;;;;;;19.50;11.25;;;;;;;5.03;76.51;101120.41;4971656;28;20029;-85
2023/01/31 09:01:19;;;;;;;21.67;11.13;;;;;;;4.78;76.39;101076.09;4969893;28;20114;-87
2023/01/31 09:03:45;;;;;;;20.70;11.13;;;;;;;5.05;76.43;101122.34;4971931;28;20081;-86
2023/01/31 09:06:16;;;;;;;;;;;;;;;5.04;76.22;101123.13;4970888;28;20114;-86
2023/01/31 09:08:41;;;;;;;19.00;10.50;;;;;;;4.68;76.44;101061.53;4953967;28;19910;-86
2023/01/31 09:11:07;;;;;;;20.05;11.63;;;;;;;4.98;76.42;101117.44;4971856;28;20121;-85
2023/01/31 09:13:33;;;;;;;22.70;12.32;;;;;;;4.72;75.92;101068.75;4954725;28;20026;-85
2023/01/31 09:16:07;;;;;;;20.33;11.70;;;;;;;5.05;76.29;101113.69;4954692;28;20025;-85
2023/01/31 09:18:38;;;;;;;21.17;11.48;;;;;;;4.95;76.51;101105.94;4963695;28;20066;-85
2023/01/31 09:21:11;;;;;;;19.40;10.77;;;;;;;4.83;75.97;101090.34;4950304;29;20505;-86
2023/01/31 09:23:37;;;;;;;22.67;11.95;;;;;;;4.88;76.44;101097.66;4951275;29;20057;-86
2023/01/31 09:26:04;;;;;;;20.65;11.68;;;;;;;5.04;76.40;101120.53;4950250;28;20112;-86
2023/01/31 09:28:30;;;;;;;20.98;11.25;;;;;;;4.87;76.17;101089.81;4951420;28;20035;-87
2023/01/31 09:31:21;;;;;;;19.35;10.70;;;;;;;5.05;76.52;101124.03;4950301;28;20122;-87
2023/01/31 09:33:47;;;;;;;18.85;11.40;;;;;;;5.01;76.39;101115.09;4950565;28;20125;-88
2023/01/31 09:36:16;;;;;;;18.50;10.73;;;;;;;5.01;76.10;101119.38;4935530;29;20023;-87
2023/01/31 09:38:42;;;;;;;21.30;11.65;;;;;;;4.62;76.38;101048.09;4951550;29;20318;-88
2023/01/31 09:41:25;;;;;;;21.13;11.80;;;;;;;4.81;76.33;101077.25;4951252;28;20070;-88
2023/01/31 09:43:59;;;;;;;22.42;11.38;;;;;;;4.86;76.40;101083.69;4952470;28;20533;-88
2023/01/31 09:46:28;;;;;;;22.50;12.18;;;;;;;5.00;76.48;101097.78;4952691;28;20032;-89
2023/01/31 09:48:56;;;;;;;22.02;11.98;;;;;;;4.81;76.57;101076.38;4938519;29;20070;-88
2023/01/31 09:51:23;;;;;;;21.77;12.00;;;;;;;4.86;76.26;101075.94;4938880;29;20039;-86
2023/01/31 09:53:48;;;;;;;;;;;;;;;5.04;75.90;101098.94;4938698;28;20027;-86
2023/01/31 09:56:33;;;;;;;21.88;12.13;;;;;;;4.61;76.38;101028.16;4954596;29;19910;-85
2023/01/31 09:59:22;;;;;;;20.38;11.10;;;;;;;4.97;76.07;101083.69;4953899;29;20035;-85
2023/01/31 10:01:59;;;;;;;21.48;11.73;;;;;;;4.82;76.69;101057.47;4939697;29;20058;-86
2023/01/31 10:04:48;;;;;;;21.35;11.50;;;;;;;4.98;76.32;101076.03;4958113;29;20536;-86
2023/01/31 10:07:43;;;;;;;22.38;11.73;;;;;;;4.97;76.04;101084.56;4960242;29;20069;-86
2023/01/31 10:10:47;;;;;;;21.52;11.75;;;;;;;4.99;76.35;101082.13;4938299;29;20043;-86
2023/01/31 10:13:35;;;;;;;21.65;11.35;;;;;;;4.98;76.28;101077.75;4953859;28;20085;-86
2023/01/31 10:16:10;;;;;;;20.52;11.50;;;;;;;4.97;76.42;101092.34;4914762;29;20118;-86
2023/01/31 10:18:42;;;;;;;21.60;11.65;;;;;;;4.81;76.29;101066.00;4955060;29;20067;-86
2023/01/31 10:21:20;;;;;;;23.05;12.27;;;;;;;5.00;75.94;101082.25;4943052;28;20050;-86
2023/01/31 10:23:56;;;;;;;21.00;11.57;;;;;;;5.00;76.18;101090.00;4956691;28;20484;-86
2023/01/31 10:26:26;;;;;;;21.25;11.65;;;;;;;4.99;76.61;101087.28;4953239;28;20035;-87
2023/01/31 10:29:18;;;;;;;21.73;12.27;;;;;;;5.07;76.18;101084.53;4946988;28;20038;-86
2023/01/31 10:31:49;;;;;;;22.40;12.07;;;;;;;5.18;75.42;101085.41;4957669;28;20496;-86
2023/01/31 10:34:22;;;;;;;22.58;12.45;;;;;;;5.00;76.10;101069.31;4973276;28;20165;-85
2023/01/31 10:37:19;;;;;;;20.27;11.80;;;;;;;5.01;76.24;101080.56;4966491;28;20548;-85
2023/01/31 10:39:45;;;;;;;22.13;11.70;;;;;;;5.07;76.07;101088.81;4965438;28;20102;-86
2023/01/31 10:42:34;;;;;;;22.88;12.27;;;;;;;5.08;76.05;101085.47;4956748;28;20035;-86
2023/01/31 10:45:15;;;;;;;21.45;12.38;;;;;;;5.08;75.61;101080.28;4955986;28;20481;-86
2023/01/31 10:48:00;;;;;;;21.48;11.70;;;;;;;5.14;75.32;101079.88;4971914;28;20474;-86
2023/01/31 10:50:41;;;;;;;23.13;12.57;;;;;;;5.08;75.61;101088.06;4952546;28;20110;-86
2023/01/31 10:53:16;;;;;;;20.50;12.30;;;;;;;4.99;76.02;101085.59;4973814;28;20057;-86
2023/01/31 10:55:51;;;;;;;21.90;11.90;;;;;;;4.91;75.97;101058.22;4972910;28;20030;-86
2023/01/31 10:58:18;;;;;;;22.73;12.32;;;;;;;5.08;75.26;101049.25;4956142;28;20058;-86
2023/01/31 11:00:46;;;;;;;20.60;11.80;;;;;;;5.14;75.75;101066.91;4959516;28;20109;-86
2023/01/31 11:03:12;;;;;;;19.63;11.48;;;;;;;5.05;75.98;101074.84;4955431;28;20037;-85
2023/01/31 11:05:58;;;;;;;;;;;;;;;5.07;75.87;101071.59;4972728;28;20027;-85
2023/01/31 11:08:26;;;;;;;18.65;11.10;;;;;;;5.14;75.39;101077.28;4972391;28;19910;-86
2023/01/31 11:10:55;;;;;;;21.30;12.00;;;;;;;4.75;75.92;101021.53;4955187;28;20031;-85
2023/01/31 11:13:21;;;;;;;23.80;12.23;;;;;;;4.96;75.54;101051.72;4952407;29;20078;-85
2023/01/31 11:15:47;;;;;;;20.75;12.02;;;;;;;4.81;75.74;101022.94;4950885;28;20027;-85
2023/01/31 11:18:15;;;;;;;23.00;12.45;;;;;;;4.88;76.02;101045.03;4955952;28;20122;-86
2023/01/31 11:20:45;;;;;;;18.80;12.07;;;;;;;5.07;75.67;101070.72;4954821;28;20027;-87
2023/01/31 11:23:13;;;;;;;21.58;12.43;;;;;;;5.13;75.49;101052.19;4962080;28;20089;-87
2023/01/31 11:25:38;;;;;;;22.05;12.32;;;;;;;4.91;74.89;101016.81;4971658;28;20093;-87
2023/01/31 11:28:35;;;;;;;21.83;12.93;;;;;;;5.10;75.59;101064.09;4954644;28;20034;-84
2023/01/31 11:31:04;;;;;;;20.27;11.73;;;;;;;5.06;75.75;101069.81;4954970;28;20472;-87
2023/01/31 11:34:03;;;;;;;21.02;11.32;;;;;;;4.86;75.42;101042.31;4955396;28;20027;-87
2023/01/31 11:36:41;;;;;;;23.52;13.25;;;;;;;5.08;75.70;101070.84;4970845;28;20564;-86
2023/01/31 11:39:30;;;;;;;23.02;12.20;;;;;;;5.19;75.23;101070.81;4971228;28;20079;-88
2023/01/31 11:42:21;;;;;;;20.90;11.95;;;;;;;5.10;75.02;101050.22;4955296;28;20062;-87
2023/01/31 11:45:02;;;;;;;21.92;12.10;;;;;;;5.11;75.40;101067.59;4953250;28;20485;-87
2023/01/31 11:47:38;;;;;;;20.65;11.57;;;;;;;5.03;76.05;101056.59;4971348;28;20181;-86
2023/01/31 11:50:04;;;;;;;20.98;11.65;;;;;;;4.88;76.05;101026.91;4954101;28;20039;-85